createdAt,value
2018-06-25T00:00:46.642Z,5.10
2018-06-25T00:03:15.015Z,5.20
2018-06-25T00:05:43.394Z,5.30
2018-06-25T00:09:41.274Z,5.30
2018-06-25T00:12:09.576Z,5.17
2018-06-25T00:14:37.913Z,5.80
2018-06-25T00:17:06.308Z,6.77
2018-06-25T00:19:34.786Z,5.77
2018-06-25T00:22:03.172Z,6.53
2018-06-25T00:24:31.550Z,6.67
2018-06-25T00:26:59.868Z,5.70
2018-06-25T00:29:28.328Z,6.40
2018-06-25T00:31:56.695Z,6.10
2018-06-25T00:34:25.042Z,7.30
2018-06-25T00:36:53.428Z,7.17
2018-06-25T00:39:21.743Z,7.47
2018-06-25T00:41:53.682Z,7.00
2018-06-25T00:44:22.142Z,7.47
2018-06-25T00:46:50.531Z,6.90
2018-06-25T00:49:18.906Z,8.53
2018-06-25T00:51:47.244Z,8.10
2018-06-25T00:54:15.534Z,7.10
2018-06-25T00:56:43.909Z,7.50
2018-06-25T00:59:23.391Z,7.33
2018-06-25T01:01:52.129Z,8.53
2018-06-25T01:04:20.514Z,8.17
2018-06-25T01:06:48.842Z,7.80
2018-06-25T01:09:17.368Z,8.63
2018-06-25T01:11:45.717Z,7.97
2018-06-25T01:14:14.081Z,9.13
2018-06-25T01:16:42.397Z,8.60
2018-06-25T01:19:10.854Z,9.00
2018-06-25T01:21:39.170Z,10.73
2018-06-25T01:24:07.532Z,8.77
2018-06-25T01:26:35.875Z,11.83
2018-06-25T01:29:04.325Z,9.33
2018-06-25T01:31:32.673Z,8.93
2018-06-25T01:34:00.966Z,9.30
2018-06-25T01:36:29.324Z,9.20
2018-06-25T01:38:57.913Z,9.53
2018-06-25T01:41:26.250Z,10.53
2018-06-25T01:43:54.638Z,9.90
2018-06-25T01:46:23.010Z,11.00
2018-06-25T01:48:51.384Z,11.43
2018-06-25T01:51:19.764Z,12.50
2018-06-25T01:53:48.904Z,12.77
2018-06-25T01:56:17.306Z,14.67
2018-06-25T01:58:45.774Z,13.47
2018-06-25T02:01:14.210Z,14.90
2018-06-25T02:03:42.560Z,13.17
2018-06-25T02:06:10.982Z,12.60
2018-06-25T02:08:39.434Z,13.07
2018-06-25T02:11:07.874Z,13.40
2018-06-25T02:13:36.451Z,13.60
2018-06-25T02:16:04.860Z,13.13
2018-06-25T02:18:33.218Z,13.70
2018-06-25T02:21:01.590Z,13.03
2018-06-25T02:23:29.956Z,13.90
2018-06-25T02:25:58.288Z,14.43
2018-06-25T02:28:26.672Z,12.13
2018-06-25T02:30:55.037Z,12.53
2018-06-25T02:33:23.405Z,14.63
2018-06-25T02:35:51.773Z,11.50
2018-06-25T02:38:20.255Z,12.70
2018-06-25T02:40:48.599Z,12.30
2018-06-25T02:43:16.911Z,14.20
2018-06-25T02:45:45.288Z,12.93
2018-06-25T02:48:13.764Z,12.63
2018-06-25T02:50:42.140Z,13.27
2018-06-25T02:53:10.638Z,15.07
2018-06-25T02:55:38.968Z,12.87
2018-06-25T02:58:07.382Z,13.13
2018-06-25T03:00:35.730Z,13.13
2018-06-25T03:03:04.204Z,12.70
2018-06-25T03:05:32.541Z,12.33
2018-06-25T03:08:00.970Z,15.40
2018-06-25T03:10:29.329Z,13.87
2018-06-25T03:12:57.749Z,12.63
2018-06-25T03:15:26.080Z,13.10
2018-06-25T03:17:54.537Z,12.73
2018-06-25T03:20:23.158Z,13.97
2018-06-25T03:22:51.502Z,18.00
2018-06-25T03:25:20.029Z,17.23
2018-06-25T03:27:48.394Z,14.80
2018-06-25T03:30:16.844Z,14.97
2018-06-25T03:32:45.274Z,15.23
2018-06-25T03:35:13.692Z,14.40
2018-06-25T03:37:42.119Z,16.30
2018-06-25T03:40:10.450Z,17.13
2018-06-25T03:42:38.902Z,17.03
2018-06-25T03:45:07.325Z,16.37
2018-06-25T03:47:35.828Z,14.13
2018-06-25T03:50:04.182Z,17.00
2018-06-25T03:52:32.446Z,13.30
2018-06-25T03:55:00.758Z,17.37
2018-06-25T03:57:29.118Z,15.67
2018-06-25T03:59:57.716Z,20.20
2018-06-25T04:02:26.156Z,14.93
2018-06-25T04:04:54.453Z,15.00
2018-06-25T04:07:22.816Z,19.27
2018-06-25T04:09:51.278Z,12.97
2018-06-25T04:12:19.676Z,16.50
2018-06-25T04:14:48.092Z,22.40
2018-06-25T04:17:16.596Z,16.33
2018-06-25T04:19:44.972Z,16.07
2018-06-25T04:22:13.335Z,13.57
2018-06-25T04:24:42.634Z,16.77
2018-06-25T04:27:11.090Z,14.50
2018-06-25T04:29:44.485Z,16.27
2018-06-25T04:32:12.854Z,16.07
2018-06-25T04:34:41.334Z,14.90
2018-06-25T04:37:09.694Z,16.37
2018-06-25T04:39:38.060Z,15.20
2018-06-25T04:42:06.511Z,15.60
2018-06-25T04:44:34.930Z,15.33
2018-06-25T04:47:10.227Z,17.00
2018-06-25T04:49:38.822Z,16.03
2018-06-25T04:52:07.284Z,18.53
2018-06-25T04:54:36.793Z,15.40
2018-06-25T04:57:05.435Z,16.43
2018-06-25T04:59:33.897Z,17.87
2018-06-25T05:02:02.246Z,17.60
2018-06-25T05:04:30.986Z,12.70
2018-06-25T05:06:59.356Z,16.73
2018-06-25T05:09:27.702Z,17.20
2018-06-25T05:11:56.072Z,16.27
2018-06-25T05:14:24.412Z,17.93
2018-06-25T05:16:52.813Z,15.17
2018-06-25T05:19:21.355Z,13.63
2018-06-25T05:21:49.786Z,17.10
2018-06-25T05:24:18.209Z,15.23
2018-06-25T05:26:46.646Z,15.43
2018-06-25T05:29:15.415Z,17.00
2018-06-25T05:31:43.733Z,14.00
2018-06-25T05:34:12.177Z,14.70
2018-06-25T05:36:40.574Z,20.13
2018-06-25T05:39:10.548Z,15.80
2018-06-25T05:41:38.949Z,11.87
2018-06-25T05:44:07.442Z,13.77
2018-06-25T05:46:36.116Z,15.57
2018-06-25T05:49:04.512Z,17.03
2018-06-25T05:51:32.895Z,16.53
2018-06-25T05:54:01.294Z,15.70
2018-06-25T05:56:29.727Z,15.47
2018-06-25T05:58:58.335Z,18.60
2018-06-25T06:01:27.132Z,18.13
2018-06-25T06:03:55.563Z,15.07
2018-06-25T06:06:24.087Z,17.03
2018-06-25T06:08:52.586Z,15.13
2018-06-25T06:11:21.102Z,15.07
2018-06-25T06:13:49.417Z,17.80
2018-06-25T06:16:17.826Z,18.50
2018-06-25T06:18:46.292Z,18.80
2018-06-25T06:21:14.778Z,15.20
2018-06-25T06:23:43.197Z,19.50
2018-06-25T06:26:11.648Z,14.60
2018-06-25T06:28:40.108Z,14.07
2018-06-25T06:31:08.639Z,18.93
2018-06-25T06:33:37.076Z,15.90
2018-06-25T06:36:05.618Z,16.37
2018-06-25T06:38:34.060Z,16.70
2018-06-25T06:41:02.457Z,18.77
2018-06-25T06:43:30.932Z,14.90
2018-06-25T06:45:59.468Z,14.33
2018-06-25T06:48:27.934Z,16.73
2018-06-25T06:50:56.487Z,16.77
2018-06-25T06:53:24.950Z,17.77
2018-06-25T06:55:53.327Z,14.10
2018-06-25T06:58:21.884Z,15.03
2018-06-25T07:00:50.342Z,17.67
2018-06-25T07:03:19.512Z,16.80
2018-06-25T07:05:48.706Z,16.60
2018-06-25T07:08:17.338Z,19.50
2018-06-25T07:10:45.706Z,13.70
2018-06-25T07:13:14.129Z,13.90
2018-06-25T07:15:46.202Z,13.40
2018-06-25T07:18:14.924Z,13.27
2018-06-25T07:20:43.382Z,12.63
2018-06-25T07:23:11.842Z,14.93
2018-06-25T07:25:40.412Z,15.23
2018-06-25T07:28:08.800Z,14.63
2018-06-25T07:30:37.352Z,13.03
2018-06-25T07:33:06.128Z,11.97
2018-06-25T07:35:34.498Z,10.90
2018-06-25T07:38:02.960Z,12.93
2018-06-25T07:40:31.287Z,11.70
2018-06-25T07:42:59.726Z,12.63
2018-06-25T07:45:28.114Z,10.77
2018-06-25T07:47:56.646Z,9.10
2018-06-25T07:50:25.292Z,9.90
2018-06-25T07:52:53.664Z,11.07
2018-06-25T07:55:22.201Z,10.90
2018-06-25T07:57:50.715Z,7.97
2018-06-25T08:00:20.362Z,7.43
2018-06-25T08:02:48.732Z,5.73
2018-06-25T08:05:17.224Z,8.07
2018-06-25T08:07:50.800Z,9.80
2018-06-25T08:10:19.866Z,8.37
2018-06-25T08:12:48.474Z,7.10
2018-06-25T08:15:17.222Z,8.20
2018-06-25T08:17:45.704Z,7.70
2018-06-25T08:20:14.426Z,6.40
2018-06-25T08:22:42.906Z,5.77
2018-06-25T08:25:11.199Z,6.23
2018-06-25T08:27:39.562Z,7.37
2018-06-25T08:30:08.004Z,6.80
2018-06-25T08:32:36.318Z,9.17
2018-06-25T08:35:04.693Z,6.17
2018-06-25T08:37:33.078Z,5.47
2018-06-25T08:40:01.398Z,8.67
2018-06-25T08:42:33.776Z,6.03
2018-06-25T08:45:03.480Z,5.90
2018-06-25T08:47:39.820Z,5.00
2018-06-25T08:50:09.334Z,5.20
2018-06-25T08:52:48.585Z,7.70
2018-06-25T08:55:17.093Z,7.30
2018-06-25T08:57:45.504Z,5.53
2018-06-25T09:00:13.897Z,5.10
2018-06-25T09:02:42.355Z,4.37
2018-06-25T09:05:11.142Z,4.00
2018-06-25T09:07:39.450Z,4.93
2018-06-25T09:10:07.908Z,5.57
2018-06-25T09:12:36.178Z,5.63
2018-06-25T09:15:04.874Z,7.73
2018-06-25T09:17:33.172Z,5.93
2018-06-25T09:20:01.681Z,5.27
2018-06-25T09:22:30.232Z,5.57
2018-06-25T09:24:58.592Z,5.50
2018-06-25T09:27:26.992Z,7.63
2018-06-25T09:29:55.521Z,5.83
2018-06-25T09:32:23.800Z,4.53
2018-06-25T09:34:52.174Z,3.23
2018-06-25T09:37:20.586Z,5.07
2018-06-25T09:39:49.014Z,6.60
2018-06-25T09:42:17.366Z,4.17
2018-06-25T09:44:45.722Z,3.55
2018-06-25T09:47:14.062Z,4.73
2018-06-25T09:49:42.436Z,5.35
2018-06-25T09:52:10.879Z,3.55
2018-06-25T09:54:39.277Z,4.45
2018-06-25T09:57:07.773Z,5.47
2018-06-25T09:59:36.277Z,3.77
2018-06-25T10:02:04.734Z,3.27
2018-06-25T10:04:33.124Z,6.50
2018-06-25T10:07:01.588Z,4.70
2018-06-25T10:09:30.066Z,7.13
2018-06-25T10:11:58.440Z,3.80
2018-06-25T10:14:26.880Z,3.70
2018-06-25T10:16:55.300Z,6.42
2018-06-25T10:19:24.065Z,7.87
2018-06-25T10:21:52.754Z,4.78
2018-06-25T10:24:21.127Z,4.40
2018-06-25T10:26:49.847Z,5.15
2018-06-25T10:29:18.630Z,5.28
2018-06-25T10:31:47.045Z,4.90
2018-06-25T10:34:15.470Z,4.92
2018-06-25T10:36:44.044Z,4.10
2018-06-25T10:39:13.038Z,4.63
2018-06-25T10:41:41.518Z,4.78
2018-06-25T10:44:10.104Z,4.07
2018-06-25T10:46:38.553Z,4.70
2018-06-25T10:49:06.986Z,3.87
2018-06-25T10:51:35.788Z,4.72
2018-06-25T10:54:04.490Z,3.45
2018-06-25T10:56:32.970Z,5.67
2018-06-25T10:59:01.414Z,3.57
2018-06-25T11:01:29.752Z,4.70
2018-06-25T11:03:58.153Z,3.87
2018-06-25T11:06:26.592Z,4.37
2018-06-25T11:08:55.540Z,4.55
2018-06-25T11:11:23.993Z,5.37
2018-06-25T11:13:52.977Z,4.40
2018-06-25T11:16:21.432Z,3.70
2018-06-25T11:18:50.209Z,5.72
2018-06-25T11:21:19.158Z,3.72
2018-06-25T11:23:47.550Z,3.22
2018-06-25T11:26:27.716Z,4.47
2018-06-25T11:28:56.128Z,4.00
2018-06-25T11:31:26.928Z,3.42
2018-06-25T11:33:55.917Z,3.40
2018-06-25T11:36:24.329Z,3.77
2018-06-25T11:38:52.798Z,4.08
2018-06-25T11:41:21.155Z,4.12
2018-06-25T11:43:50.553Z,4.65
2018-06-25T11:46:18.984Z,3.65
2018-06-25T11:48:47.323Z,4.28
2018-06-25T11:51:15.795Z,4.72
2018-06-25T11:53:44.340Z,5.67
2018-06-25T11:56:12.810Z,5.37
2018-06-25T11:58:41.164Z,4.72
2018-06-25T12:01:09.929Z,6.40
2018-06-25T12:03:38.354Z,4.55
2018-06-25T12:06:07.549Z,5.53
2018-06-25T12:08:39.341Z,4.55
2018-06-25T12:11:07.782Z,6.95
2018-06-25T12:13:36.175Z,5.83
2018-06-25T12:16:04.961Z,4.70
2018-06-25T12:18:33.560Z,5.75
2018-06-25T12:21:01.966Z,5.47
2018-06-25T12:23:30.647Z,4.58
2018-06-25T12:25:59.046Z,5.55
2018-06-25T12:28:27.682Z,5.08
2018-06-25T12:30:56.057Z,5.55
2018-06-25T12:33:24.471Z,6.33
2018-06-25T12:35:53.054Z,4.85
2018-06-25T12:38:21.685Z,4.47
2018-06-25T12:40:50.061Z,7.42
2018-06-25T12:43:18.500Z,5.05
2018-06-25T12:45:46.837Z,4.47
2018-06-25T12:50:42.949Z,5.03
2018-06-25T12:53:11.377Z,5.35
2018-06-25T12:55:39.877Z,6.15
2018-06-25T12:58:08.522Z,5.65
2018-06-25T13:00:36.906Z,5.22
2018-06-25T13:03:05.342Z,6.78
2018-06-25T13:05:34.368Z,5.78
2018-06-25T13:08:02.977Z,6.45
2018-06-25T13:10:31.346Z,6.28
2018-06-25T13:12:59.827Z,5.53
2018-06-25T13:15:28.447Z,6.95
2018-06-25T13:17:57.241Z,6.05
2018-06-25T13:20:25.748Z,5.10
2018-06-25T13:22:54.226Z,5.47
2018-06-25T13:25:22.891Z,6.83
2018-06-25T13:27:51.465Z,8.03
2018-06-25T13:30:19.934Z,8.18
2018-06-25T13:32:48.435Z,4.90
2018-06-25T13:35:16.935Z,7.58
2018-06-25T13:37:48.767Z,6.30
2018-06-25T13:40:17.233Z,5.10
2018-06-25T13:42:47.555Z,7.62
2018-06-25T13:45:17.469Z,7.53
2018-06-25T13:47:47.677Z,5.83
2018-06-25T13:50:21.011Z,5.70
2018-06-25T13:52:50.792Z,8.60
2018-06-25T13:55:19.154Z,6.45
2018-06-25T13:57:47.734Z,8.93
2018-06-25T14:00:16.247Z,6.37
2018-06-25T14:02:44.621Z,7.15
2018-06-25T14:05:13.029Z,6.95
2018-06-25T14:07:41.401Z,7.90
2018-06-25T14:10:09.903Z,10.38
2018-06-25T14:12:38.371Z,7.50
2018-06-25T14:15:07.546Z,6.80
2018-06-25T14:17:36.025Z,6.00
2018-06-25T14:20:04.438Z,6.45
2018-06-25T14:22:32.934Z,7.87
2018-06-25T14:25:02.257Z,6.70
2018-06-25T14:27:35.952Z,7.45
2018-06-25T14:30:09.186Z,5.95
2018-06-25T14:32:37.706Z,8.73
2018-06-25T14:35:11.530Z,5.72
2018-06-25T14:37:40.031Z,7.12
2018-06-25T14:40:08.492Z,5.92
2018-06-25T14:42:36.941Z,8.60
2018-06-25T14:45:05.494Z,5.50
2018-06-25T14:47:33.862Z,8.10
2018-06-25T14:50:02.390Z,5.45
2018-06-25T14:52:30.921Z,5.53
2018-06-25T14:54:59.408Z,8.20
2018-06-25T14:57:27.911Z,6.67
2018-06-25T14:59:56.598Z,6.05
2018-06-25T15:02:25.062Z,5.67
2018-06-25T15:04:53.433Z,6.22
2018-06-25T15:07:22.114Z,5.85
2018-06-25T15:09:50.521Z,6.05
2018-06-25T15:12:18.825Z,5.28
2018-06-25T15:14:47.353Z,6.05
2018-06-25T15:17:16.062Z,6.08
2018-06-25T15:19:44.742Z,6.80
2018-06-25T15:22:13.112Z,7.95
2018-06-25T15:24:41.527Z,5.10
2018-06-25T15:27:10.288Z,4.90
2018-06-25T15:29:38.835Z,7.47
2018-06-25T15:32:07.230Z,7.55
2018-06-25T15:34:35.615Z,6.28
2018-06-25T15:37:04.023Z,5.50
2018-06-25T15:39:32.467Z,5.53
2018-06-25T15:42:00.929Z,5.55
2018-06-25T15:44:29.681Z,6.20
2018-06-25T15:46:58.096Z,6.42
2018-06-25T15:49:26.898Z,6.97
2018-06-25T15:51:55.286Z,5.72
2018-06-25T15:54:23.688Z,6.12
2018-06-25T15:56:52.020Z,5.22
2018-06-25T15:59:20.449Z,5.40
2018-06-25T16:01:50.577Z,6.78
2018-06-25T16:04:19.020Z,6.40
2018-06-25T16:06:47.431Z,7.00
2018-06-25T16:09:15.759Z,6.72
2018-06-25T16:11:44.180Z,4.83
2018-06-25T16:14:12.595Z,4.83
2018-06-25T16:16:40.949Z,5.25
2018-06-25T16:19:10.191Z,5.10
2018-06-25T16:21:39.499Z,5.28
2018-06-25T16:24:08.047Z,7.67
2018-06-25T16:26:36.601Z,7.00
2018-06-25T16:29:05.453Z,8.20
2018-06-25T16:31:34.109Z,6.40
2018-06-25T16:34:03.651Z,9.05
2018-06-25T16:36:33.756Z,8.38
2018-06-25T16:39:02.388Z,7.58
2018-06-25T16:41:30.913Z,6.80
2018-06-25T16:43:59.522Z,8.48
2018-06-25T16:46:28.099Z,9.13
2018-06-25T16:48:56.736Z,7.25
2018-06-25T16:51:25.274Z,9.03
2018-06-25T16:53:53.821Z,6.75
2018-06-25T16:56:22.911Z,6.53
2018-06-25T16:58:52.513Z,5.78
2018-06-25T17:01:21.587Z,8.30
2018-06-25T17:03:50.846Z,8.50
2018-06-25T17:06:19.425Z,6.25
2018-06-25T17:08:48.724Z,7.12
2018-06-25T17:11:18.250Z,4.20
2018-06-25T17:13:49.105Z,4.90
2018-06-25T17:16:18.252Z,5.15
2018-06-25T17:18:46.677Z,5.60
2018-06-25T17:21:15.208Z,5.58
2018-06-25T17:23:43.669Z,6.67
2018-06-25T17:26:13.696Z,6.75
2018-06-25T17:28:42.253Z,5.75
2018-06-25T17:31:10.862Z,6.30
2018-06-25T17:33:39.362Z,5.47
2018-06-25T17:36:07.749Z,8.23
2018-06-25T17:38:36.231Z,9.53
2018-06-25T17:41:04.661Z,7.10
2018-06-25T17:43:33.111Z,9.65
2018-06-25T17:46:01.534Z,8.20
2018-06-25T17:48:30.042Z,10.85
2018-06-25T17:50:58.443Z,7.37
2018-06-25T17:53:27.056Z,7.78
2018-06-25T17:55:55.509Z,8.15
2018-06-25T17:58:23.969Z,10.18
2018-06-25T18:00:52.584Z,9.25
2018-06-25T18:03:21.095Z,10.68
2018-06-25T18:05:49.483Z,10.88
2018-06-25T18:08:17.982Z,11.68
2018-06-25T18:10:46.321Z,10.75
2018-06-25T18:13:15.309Z,10.48
2018-06-25T18:15:43.725Z,11.30
2018-06-25T18:18:12.515Z,12.88
2018-06-25T18:20:41.044Z,12.78
2018-06-25T18:23:09.674Z,14.70
2018-06-25T18:25:38.055Z,12.33
2018-06-25T18:28:06.468Z,12.88
2018-06-25T18:30:35.097Z,13.35
2018-06-25T18:33:03.532Z,13.38
2018-06-25T18:35:32.059Z,14.38
2018-06-25T18:38:00.625Z,12.13
2018-06-25T18:40:29.079Z,16.32
2018-06-25T18:42:58.085Z,14.80
2018-06-25T18:45:26.553Z,14.53
2018-06-25T18:47:54.973Z,14.10
2018-06-25T18:50:23.332Z,12.03
2018-06-25T18:52:51.879Z,15.48
2018-06-25T18:55:21.403Z,12.88
2018-06-25T18:57:49.910Z,12.45
2018-06-25T19:00:18.315Z,13.03
2018-06-25T19:02:47.479Z,15.13
2018-06-25T19:05:15.965Z,14.13
2018-06-25T19:07:44.429Z,18.57
2018-06-25T19:10:12.897Z,12.85
2018-06-25T19:12:41.409Z,11.28
2018-06-25T19:15:09.947Z,11.43
2018-06-25T19:17:38.493Z,11.90
2018-06-25T19:20:07.178Z,12.33
2018-06-25T19:22:36.533Z,11.83
2018-06-25T19:25:05.085Z,13.75
2018-06-25T19:27:33.601Z,12.95
2018-06-25T19:30:02.193Z,12.35
2018-06-25T19:32:30.635Z,11.30
2018-06-25T19:34:59.185Z,11.65
2018-06-25T19:37:27.783Z,9.98
2018-06-25T19:39:56.205Z,17.77
2018-06-25T19:42:24.801Z,15.10
2018-06-25T19:44:53.179Z,11.30
2018-06-25T19:47:21.664Z,12.20
2018-06-25T19:49:50.306Z,13.43
2018-06-25T19:52:18.783Z,12.45
2018-06-25T19:54:47.241Z,12.25
2018-06-25T19:57:15.721Z,13.40
2018-06-25T19:59:44.339Z,12.80
2018-06-25T20:02:12.795Z,13.45
2018-06-25T20:04:41.257Z,12.75
2018-06-25T20:07:09.988Z,10.03
2018-06-25T20:09:38.580Z,12.95
2018-06-25T20:12:07.672Z,10.18
2018-06-25T20:14:36.219Z,14.23
2018-06-25T20:17:04.893Z,14.38
2018-06-25T20:19:33.607Z,8.90
2018-06-25T20:22:02.080Z,12.05
2018-06-25T20:24:30.423Z,11.10
2018-06-25T20:26:58.907Z,10.95
2018-06-25T20:29:27.466Z,13.40
2018-06-25T20:31:55.893Z,9.68
2018-06-25T20:34:24.765Z,14.30
2018-06-25T20:36:53.472Z,15.90
2018-06-25T20:39:21.871Z,13.40
2018-06-25T20:41:50.288Z,15.53
2018-06-25T20:44:18.723Z,15.18
2018-06-25T20:46:47.131Z,16.57
2018-06-25T20:49:15.755Z,14.83
2018-06-25T20:51:44.175Z,18.23
2018-06-25T20:54:12.635Z,14.78
2018-06-25T20:56:41.167Z,15.58
2018-06-25T20:59:09.675Z,14.03
2018-06-25T21:01:38.166Z,12.80
2018-06-25T21:04:06.607Z,15.03
2018-06-25T21:06:35.000Z,17.02
2018-06-25T21:09:03.535Z,12.80
2018-06-25T21:11:31.909Z,14.18
2018-06-25T21:14:00.311Z,12.60
2018-06-25T21:16:28.679Z,15.03
2018-06-25T21:18:57.038Z,13.72
2018-06-25T21:21:25.428Z,13.48
2018-06-25T21:23:53.970Z,15.88
2018-06-25T21:26:22.358Z,13.65
2018-06-25T21:28:56.253Z,13.00
2018-06-25T21:31:24.798Z,12.55
2018-06-25T21:33:53.134Z,12.03
2018-06-25T21:36:21.522Z,13.90
2018-06-25T21:38:49.962Z,12.10
2018-06-25T21:41:18.355Z,10.68
2018-06-25T21:43:46.775Z,11.03
2018-06-25T21:46:15.122Z,13.32
2018-06-25T21:48:43.564Z,12.35
2018-06-25T21:51:12.053Z,11.28
2018-06-25T21:53:40.419Z,12.10
2018-06-25T21:56:08.871Z,13.88
2018-06-25T21:58:37.241Z,11.85
2018-06-25T22:01:05.636Z,9.40
2018-06-25T22:03:34.059Z,10.23
2018-06-25T22:06:02.435Z,13.22
2018-06-25T22:08:30.816Z,9.98
2018-06-25T22:10:59.180Z,13.18
2018-06-25T22:13:27.547Z,13.03
2018-06-25T22:15:56.029Z,12.63
2018-06-25T22:18:24.385Z,10.35
2018-06-25T22:20:52.838Z,9.60
2018-06-25T22:23:21.234Z,12.47
2018-06-25T22:25:49.725Z,9.55
2018-06-25T22:28:18.135Z,11.12
2018-06-25T22:30:46.670Z,9.98
2018-06-25T22:33:15.033Z,9.00
2018-06-25T22:35:43.391Z,8.58
2018-06-25T22:38:11.834Z,9.33
2018-06-25T22:40:40.195Z,11.53
2018-06-25T22:43:08.662Z,8.90
2018-06-25T22:45:37.915Z,9.50
2018-06-25T22:48:06.371Z,9.95
2018-06-25T22:50:34.799Z,7.90
2018-06-25T22:53:03.228Z,12.68
2018-06-25T22:55:33.441Z,11.08
2018-06-25T22:58:01.881Z,10.15
2018-06-25T23:00:30.422Z,12.58
2018-06-25T23:02:58.820Z,13.05
2018-06-25T23:05:27.354Z,12.90
2018-06-25T23:07:55.710Z,12.60
2018-06-25T23:10:24.046Z,13.95
2018-06-25T23:12:52.396Z,9.98
2018-06-25T23:15:20.781Z,11.57
2018-06-25T23:17:49.184Z,12.23
2018-06-25T23:21:46.989Z,12.82
2018-06-25T23:24:15.342Z,16.20
2018-06-25T23:26:43.729Z,11.97
2018-06-25T23:29:12.106Z,13.00
2018-06-25T23:31:40.419Z,11.88
2018-06-25T23:34:08.770Z,10.68
2018-06-25T23:36:37.611Z,13.93
2018-06-25T23:39:08.881Z,11.28
2018-06-25T23:41:37.274Z,12.50
2018-06-25T23:44:05.674Z,11.28
2018-06-25T23:46:34.034Z,12.45
2018-06-25T23:49:02.406Z,12.82
2018-06-25T23:51:30.769Z,14.30
2018-06-25T23:53:59.134Z,12.50
2018-06-25T23:56:27.576Z,10.45
2018-06-25T23:58:56.002Z,12.18
